Time;durP1;ratioP1;P1;durP2;ratioP2;P2;SDS_P1;SDS_P2;PMS_P1;PMS_P2;Temp;Humidity;BMP_temperature;BMP_pressure;BME280_temperature;BME280_humidity;BME280_pressure;Samples;Min_cycle;Max_cycle;Signal;HPM_P1;HPM_P2
2021/09/09 00:02:22;;;;;;;12.93;11.83;;;;;;;16.82;81.03;100128.72;5007887;28;20782;-78
2021/09/09 00:04:49;;;;;;;14.00;12.90;;;;;;;16.83;80.60;100132.25;5008711;28;20217;-78
2021/09/09 00:07:15;;;;;;;13.73;12.67;;;;;;;16.88;80.39;100141.59;5008149;28;20213;-79
2021/09/09 00:09:42;;;;;;;14.53;13.17;;;;;;;16.88;80.73;100136.31;5007685;28;20782;-79
2021/09/09 00:12:08;;;;;;;13.63;12.50;;;;;;;16.86;80.62;100139.97;5008092;28;20279;-77
2021/09/09 00:14:35;;;;;;;14.07;12.77;;;;;;;16.90;80.26;100141.53;5006882;28;20650;-78
2021/09/09 00:17:01;;;;;;;15.23;14.07;;;;;;;16.96;80.83;100130.69;5007880;28;20202;-78
2021/09/09 00:19:29;;;;;;;13.73;12.53;;;;;;;16.99;81.41;100098.03;5007438;28;20666;-77
2021/09/09 00:21:55;;;;;;;14.80;13.60;;;;;;;17.03;81.29;100103.06;5007238;28;20233;-78
2021/09/09 00:24:21;;;;;;;14.70;13.27;;;;;;;17.03;80.42;100123.31;5007701;28;20790;-79
2021/09/09 00:26:48;;;;;;;14.07;12.97;;;;;;;16.87;80.24;100142.53;5007576;28;20291;-77
2021/09/09 00:29:14;;;;;;;14.73;13.63;;;;;;;16.63;80.55;100139.31;5008747;28;20647;-79
2021/09/09 00:31:40;;;;;;;15.10;13.80;;;;;;;16.66;80.83;100120.69;5007981;28;20234;-78
2021/09/09 00:34:07;;;;;;;15.10;13.87;;;;;;;16.61;80.74;100122.72;5008969;28;20213;-77
2021/09/09 00:36:34;;;;;;;14.60;13.40;;;;;;;16.61;80.99;100120.09;5008428;28;20209;-80
2021/09/09 00:39:01;;;;;;;14.63;13.33;;;;;;;16.60;80.89;100106.97;5008514;28;20737;-79
2021/09/09 00:41:29;;;;;;;15.67;14.37;;;;;;;16.49;81.10;100115.41;5008403;28;20569;-78
2021/09/09 00:43:55;;;;;;;14.83;13.43;;;;;;;16.45;81.29;100105.94;5006068;28;20217;-77
2021/09/09 00:46:23;;;;;;;15.07;13.57;;;;;;;16.41;81.50;100097.34;5008916;28;20206;-77
2021/09/09 00:48:50;;;;;;;14.37;13.23;;;;;;;16.46;82.27;100076.88;5008153;28;20229;-79
2021/09/09 00:51:16;;;;;;;16.10;14.80;;;;;;;16.50;82.85;100045.13;5008097;28;20232;-77
2021/09/09 00:53:45;;;;;;;15.77;14.37;;;;;;;16.45;82.77;100045.34;5007145;28;20765;-79
2021/09/09 00:56:12;;;;;;;14.67;13.57;;;;;;;16.36;81.75;100082.69;5008313;28;20206;-79
2021/09/09 00:58:42;;;;;;;14.63;13.37;;;;;;;16.34;81.52;100095.94;5007593;28;20232;-79
2021/09/09 01:01:09;;;;;;;14.87;13.80;;;;;;;16.29;81.55;100111.09;5008082;28;20598;-78
2021/09/09 01:03:35;;;;;;;15.43;14.13;;;;;;;16.24;81.41;100095.53;5007098;28;20564;-77
2021/09/09 01:06:02;;;;;;;14.53;13.33;;;;;;;16.28;81.04;100110.25;5008376;28;20202;-78
2021/09/09 01:08:28;;;;;;;13.90;12.77;;;;;;;16.31;81.13;100105.75;5008023;28;20261;-79
2021/09/09 01:10:56;;;;;;;15.20;13.87;;;;;;;16.24;81.61;100087.63;5008337;28;20238;-77
2021/09/09 01:13:22;;;;;;;14.63;13.17;;;;;;;16.28;81.69;100083.91;5007896;28;20279;-77
2021/09/09 01:15:48;;;;;;;14.97;13.33;;;;;;;16.28;82.16;100069.88;5008464;28;20210;-79
2021/09/09 01:18:15;;;;;;;14.20;13.10;;;;;;;16.33;83.05;100045.94;5007560;28;20675;-78
2021/09/09 01:20:42;;;;;;;15.47;14.13;;;;;;;16.28;83.27;100038.28;5007310;28;20224;-77
2021/09/09 01:23:10;;;;;;;14.10;13.00;;;;;;;16.28;83.79;100020.69;5009032;28;20206;-79
2021/09/09 01:25:37;;;;;;;15.03;13.73;;;;;;;16.19;83.04;100050.09;5009026;28;20267;-77
2021/09/09 01:28:05;;;;;;;14.47;13.27;;;;;;;16.29;82.69;100061.03;5009030;28;20271;-78
2021/09/09 01:30:31;;;;;;;15.47;14.27;;;;;;;16.30;82.83;100056.66;5007947;28;20291;-77
2021/09/09 01:32:58;;;;;;;14.40;13.20;;;;;;;16.30;82.30;100083.00;5008333;28;20266;-77
2021/09/09 01:35:24;;;;;;;15.03;13.43;;;;;;;16.34;82.53;100066.97;5008484;28;20210;-79
2021/09/09 01:37:51;;;;;;;13.60;12.60;;;;;;;16.36;82.28;100073.00;5009026;28;20273;-77
2021/09/09 01:40:26;;;;;;;14.27;13.17;;;;;;;16.32;81.92;100089.03;5012593;28;20229;-79
2021/09/09 01:42:54;;;;;;;15.27;13.87;;;;;;;16.26;81.93;100085.75;5010673;28;20209;-78
2021/09/09 01:45:20;;;;;;;13.70;12.70;;;;;;;16.26;82.03;100082.28;5011556;28;20217;-78
2021/09/09 01:47:47;;;;;;;13.70;12.50;;;;;;;16.26;83.03;100048.88;5012535;28;20214;-80
2021/09/09 01:50:13;;;;;;;14.60;13.17;;;;;;;16.26;83.19;100041.00;5011086;28;20229;-79
2021/09/09 01:52:39;;;;;;;14.47;13.17;;;;;;;16.30;82.94;100048.75;5012569;28;20238;-77
2021/09/09 01:55:06;;;;;;;14.77;13.47;;;;;;;16.27;84.04;100021.63;5012152;28;20214;-78
2021/09/09 01:57:33;;;;;;;13.03;11.87;;;;;;;16.21;84.42;100010.53;5012144;28;20218;-79
2021/09/09 02:00:04;;;;;;;16.53;15.10;;;;;;;16.01;83.67;100024.66;5011578;28;20431;-79
2021/09/09 02:02:30;;;;;;;16.33;14.77;;;;;;;16.08;83.64;100021.66;5010887;28;20724;-78
2021/09/09 02:04:56;;;;;;;16.00;14.67;;;;;;;16.17;83.47;100037.94;5012391;28;20912;-78
2021/09/09 02:07:23;;;;;;;19.10;17.50;;;;;;;16.03;83.82;100020.19;5012760;28;21160;-79
2021/09/09 02:09:49;;;;;;;16.40;15.00;;;;;;;16.06;83.58;100020.91;5010586;28;20268;-77
2021/09/09 02:12:15;;;;;;;16.30;15.03;;;;;;;16.03;83.11;100044.72;5011683;28;20232;-80
2021/09/09 02:14:42;;;;;;;15.17;13.73;;;;;;;16.00;82.82;100050.16;5011896;28;20212;-78
2021/09/09 02:17:10;;;;;;;15.07;13.77;;;;;;;15.94;82.86;100049.59;5011599;28;20210;-78
2021/09/09 02:19:36;;;;;;;15.27;14.07;;;;;;;15.87;82.69;100055.13;5011525;28;20214;-78
2021/09/09 02:22:04;;;;;;;14.67;13.40;;;;;;;15.82;82.77;100059.78;5011020;28;20598;-78
2021/09/09 02:24:30;;;;;;;15.27;13.83;;;;;;;15.75;82.76;100054.88;5011743;28;20214;-79
2021/09/09 02:26:56;;;;;;;13.60;12.40;;;;;;;15.69;83.15;100037.53;5011329;28;20216;-78
2021/09/09 02:29:23;;;;;;;13.20;12.10;;;;;;;15.71;83.50;100024.31;5011244;28;20308;-79
2021/09/09 02:31:49;;;;;;;13.73;12.73;;;;;;;15.72;83.26;100026.88;5010456;28;20280;-78
2021/09/09 02:34:17;;;;;;;14.03;12.73;;;;;;;15.77;82.92;100048.59;5012233;28;20252;-77
2021/09/09 02:36:43;;;;;;;13.17;12.03;;;;;;;15.77;83.61;100038.06;5011262;28;20207;-79
2021/09/09 02:39:10;;;;;;;13.70;12.53;;;;;;;15.83;84.11;100011.47;5010750;28;20256;-79
2021/09/09 02:41:36;;;;;;;13.37;12.37;;;;;;;15.86;82.92;100044.69;5011222;28;20283;-77
2021/09/09 02:44:03;;;;;;;14.80;13.43;;;;;;;15.78;82.87;100058.22;5010383;28;20226;-77
2021/09/09 02:46:29;;;;;;;15.00;13.77;;;;;;;15.81;83.06;100044.88;5011599;28;20252;-78
2021/09/09 02:48:55;;;;;;;15.40;14.23;;;;;;;15.75;82.69;100058.34;5010961;28;20275;-78
2021/09/09 02:51:24;;;;;;;17.00;15.50;;;;;;;15.75;82.32;100054.88;5009886;28;20240;-80
2021/09/09 02:53:50;;;;;;;15.40;13.90;;;;;;;15.71;82.39;100063.78;5009447;28;20265;-80
2021/09/09 02:56:17;;;;;;;15.37;13.87;;;;;;;15.63;81.87;100074.66;5011322;28;20239;-80
2021/09/09 02:58:43;;;;;;;14.63;13.23;;;;;;;15.56;82.00;100066.22;5010961;28;20269;-78
2021/09/09 03:01:12;;;;;;;13.60;12.30;;;;;;;15.57;82.68;100041.59;5010645;28;20232;-78
2021/09/09 03:03:38;;;;;;;13.90;12.80;;;;;;;15.51;82.90;100034.00;5010285;28;20238;-78
2021/09/09 03:06:06;;;;;;;13.10;12.03;;;;;;;15.41;83.35;100007.25;5011040;28;20261;-78
2021/09/09 03:08:33;;;;;;;13.30;12.20;;;;;;;15.27;84.08;99989.47;5009856;28;20211;-79
2021/09/09 03:11:01;;;;;;;12.60;11.70;;;;;;;15.13;84.34;99988.41;5010022;28;20231;-78
2021/09/09 03:13:27;;;;;;;13.33;12.33;;;;;;;15.12;84.27;99977.00;5011355;28;20212;-79
2021/09/09 03:15:54;;;;;;;14.03;12.83;;;;;;;15.12;85.07;99961.25;5011635;28;20232;-78
2021/09/09 03:18:20;;;;;;;13.43;11.97;;;;;;;15.15;84.84;99961.13;5010639;28;20274;-80
2021/09/09 03:20:47;;;;;;;13.50;12.30;;;;;;;15.14;84.99;99956.75;5011391;28;20232;-79
2021/09/09 03:23:13;;;;;;;13.00;12.03;;;;;;;15.18;84.94;99957.50;5011250;28;20217;-79
2021/09/09 03:25:41;;;;;;;12.90;11.80;;;;;;;15.14;84.68;99954.13;5010688;28;20203;-79
2021/09/09 03:28:07;;;;;;;13.17;12.07;;;;;;;15.17;84.41;99968.94;5011007;28;20210;-79
2021/09/09 03:30:33;;;;;;;12.30;11.40;;;;;;;15.16;83.94;99977.75;5009125;28;20233;-78
2021/09/09 03:33:00;;;;;;;13.43;12.10;;;;;;;15.06;84.32;99975.53;5009678;28;20348;-79
2021/09/09 03:35:26;;;;;;;13.10;11.90;;;;;;;15.08;84.11;99988.59;5010030;28;20283;-79
2021/09/09 03:37:53;;;;;;;12.70;11.70;;;;;;;15.11;84.50;99967.44;5010062;28;20242;-78
2021/09/09 03:40:20;;;;;;;13.90;12.70;;;;;;;15.17;84.50;99956.63;5010413;28;20203;-78
2021/09/09 03:42:48;;;;;;;14.90;12.63;;;;;;;15.17;84.07;99969.78;5009334;28;20983;-80
2021/09/09 03:45:14;;;;;;;13.20;12.07;;;;;;;15.18;83.87;99975.88;5009712;28;20243;-78
2021/09/09 03:47:41;;;;;;;13.43;12.23;;;;;;;15.16;83.70;99990.88;5010420;28;20280;-77
2021/09/09 03:50:09;;;;;;;13.40;12.20;;;;;;;15.15;83.85;99982.16;5009768;28;20713;-78
2021/09/09 03:52:35;;;;;;;12.77;11.67;;;;;;;15.05;83.83;99978.22;5008386;28;20648;-80
2021/09/09 03:55:02;;;;;;;14.97;13.63;;;;;;;15.02;84.70;99949.44;5009255;28;20211;-79
2021/09/09 03:57:28;;;;;;;14.30;13.03;;;;;;;14.98;85.25;99932.09;5009269;28;20262;-79
2021/09/09 03:59:56;;;;;;;13.83;12.67;;;;;;;14.95;85.37;99929.63;5009620;28;20208;-79
2021/09/09 04:02:22;;;;;;;14.63;13.40;;;;;;;14.91;85.70;99907.03;5008113;28;20261;-79
2021/09/09 04:04:48;;;;;;;14.37;12.90;;;;;;;14.94;85.83;99906.88;5010278;28;20695;-79
2021/09/09 04:07:15;;;;;;;14.37;13.17;;;;;;;14.95;85.95;99913.88;5011585;28;20776;-79
2021/09/09 04:09:41;;;;;;;14.47;13.30;;;;;;;14.88;85.81;99906.25;5009817;28;20654;-78
2021/09/09 04:12:08;;;;;;;14.20;12.83;;;;;;;14.77;86.30;99905.03;5009758;28;20531;-80
2021/09/09 04:14:34;;;;;;;13.70;12.60;;;;;;;14.75;86.70;99893.75;5010267;28;20277;-79
2021/09/09 04:17:02;;;;;;;14.43;12.93;;;;;;;14.74;86.79;99885.00;5009378;28;20200;-79
2021/09/09 04:19:29;;;;;;;14.30;13.17;;;;;;;14.78;86.39;99891.81;5009241;28;20209;-78
2021/09/09 04:21:55;;;;;;;13.83;12.53;;;;;;;14.82;85.67;99913.56;5009588;28;20286;-78
2021/09/09 04:24:21;;;;;;;13.47;12.27;;;;;;;14.77;85.51;99933.94;5009848;28;20213;-80
2021/09/09 04:26:48;;;;;;;14.70;13.07;;;;;;;14.76;85.32;99934.84;5008501;28;20230;-78
2021/09/09 04:29:14;;;;;;;13.97;12.73;;;;;;;14.73;85.43;99922.72;5009137;28;20216;-79
2021/09/09 04:31:41;;;;;;;14.00;12.80;;;;;;;14.68;84.82;99941.28;5008851;28;20819;-79
2021/09/09 04:34:09;;;;;;;14.03;12.40;;;;;;;14.67;84.88;99944.84;5008704;28;20216;-79
2021/09/09 04:36:35;;;;;;;13.03;11.93;;;;;;;14.75;85.46;99934.00;5009464;28;20268;-80
2021/09/09 04:39:02;;;;;;;13.53;12.53;;;;;;;14.81;85.99;99904.81;5008876;28;20283;-79
2021/09/09 04:41:28;;;;;;;13.67;12.37;;;;;;;14.84;86.82;99883.66;5008340;28;20294;-79
2021/09/09 04:43:54;;;;;;;14.03;12.07;;;;;;;14.82;86.43;99887.28;5008066;28;20605;-81
2021/09/09 04:46:21;;;;;;;13.70;12.50;;;;;;;14.78;85.91;99917.25;5008954;28;20207;-79
2021/09/09 04:48:47;;;;;;;14.87;12.53;;;;;;;14.82;85.65;99922.28;5010236;28;20216;-79
2021/09/09 04:51:15;;;;;;;13.10;12.10;;;;;;;14.86;84.61;99941.41;5009681;28;20236;-80
2021/09/09 04:53:41;;;;;;;13.93;12.87;;;;;;;14.82;84.57;99964.31;5008725;28;20207;-79
2021/09/09 04:56:08;;;;;;;14.00;12.90;;;;;;;14.84;83.88;99967.72;5008185;28;20633;-80
2021/09/09 04:58:34;;;;;;;14.97;13.40;;;;;;;14.70;84.68;99949.94;5010586;28;20275;-79
2021/09/09 05:01:00;;;;;;;15.30;13.13;;;;;;;14.72;84.96;99941.16;5007681;28;20270;-79
2021/09/09 05:03:27;;;;;;;14.00;12.30;;;;;;;14.70;84.63;99938.59;5008583;28;20212;-80
2021/09/09 05:05:53;;;;;;;13.83;12.53;;;;;;;14.71;84.72;99948.19;5009524;28;20217;-78
2021/09/09 05:08:21;;;;;;;13.10;12.10;;;;;;;14.70;84.87;99938.59;5008407;28;20261;-78
2021/09/09 05:10:47;;;;;;;14.00;12.83;;;;;;;14.71;85.46;99919.31;5006203;28;20274;-79
2021/09/09 05:13:13;;;;;;;13.10;11.63;;;;;;;14.73;85.11;99908.69;5008211;28;20208;-80
2021/09/09 05:15:40;;;;;;;13.40;12.37;;;;;;;14.81;85.37;99909.25;5010233;28;20206;-80
2021/09/09 05:18:06;;;;;;;15.37;12.93;;;;;;;14.83;85.37;99912.66;5008613;28;20211;-77
2021/09/09 05:20:33;;;;;;;15.03;13.50;;;;;;;14.81;85.54;99911.88;5006460;28;20260;-78
2021/09/09 05:22:59;;;;;;;14.27;13.03;;;;;;;14.78;85.49;99906.72;5008403;28;20218;-78
2021/09/09 05:25:27;;;;;;;15.00;13.47;;;;;;;14.80;85.11;99910.13;5006635;28;20283;-79
2021/09/09 05:27:53;;;;;;;14.77;13.27;;;;;;;14.81;85.78;99891.69;5006275;28;20445;-77
2021/09/09 05:30:20;;;;;;;13.97;12.80;;;;;;;14.82;86.37;99884.66;5006220;28;20239;-78
2021/09/09 05:32:46;;;;;;;13.77;12.73;;;;;;;14.86;86.77;99866.03;5004845;28;20227;-77
2021/09/09 05:35:12;;;;;;;14.60;13.30;;;;;;;14.93;87.21;99853.47;5006573;28;20206;-78
2021/09/09 05:37:39;;;;;;;14.37;12.97;;;;;;;14.97;86.16;99878.69;5007055;28;20208;-79
2021/09/09 05:40:08;;;;;;;14.57;13.47;;;;;;;14.96;86.13;99892.75;5009439;28;20211;-80
2021/09/09 05:42:36;;;;;;;14.20;12.77;;;;;;;15.00;87.23;99865.41;5008393;28;20219;-78
2021/09/09 05:45:02;;;;;;;14.67;13.43;;;;;;;15.03;86.52;99878.41;5009308;28;20220;-79
2021/09/09 05:47:29;;;;;;;14.53;13.33;;;;;;;15.12;87.34;99868.38;5009726;28;20674;-80
2021/09/09 05:49:56;;;;;;;13.17;11.87;;;;;;;15.22;87.75;99851.25;5008158;28;20210;-78
2021/09/09 05:52:22;;;;;;;13.20;12.13;;;;;;;15.22;86.98;99872.28;5007014;28;20287;-79
2021/09/09 05:54:49;;;;;;;13.17;12.17;;;;;;;15.19;86.85;99873.28;5008058;28;20752;-80
2021/09/09 05:57:15;;;;;;;16.07;14.77;;;;;;;15.21;86.99;99875.84;5006342;28;20744;-78
2021/09/09 05:59:43;;;;;;;17.77;16.30;;;;;;;14.87;86.33;99904.53;5006762;28;20215;-78
2021/09/09 06:02:14;;;;;;;19.50;18.00;;;;;;;14.39;88.12;99860.25;5005950;28;20261;-79
2021/09/09 06:04:41;;;;;;;16.87;15.57;;;;;;;14.62;88.84;99818.09;5008115;28;20247;-78
2021/09/09 06:07:07;;;;;;;17.93;16.40;;;;;;;14.76;88.20;99835.84;5007515;28;20724;-79
2021/09/09 06:09:34;;;;;;;18.00;16.10;;;;;;;14.75;88.52;99828.06;5005194;28;20203;-78
2021/09/09 06:12:00;;;;;;;18.37;16.97;;;;;;;14.72;88.57;99833.44;5003805;28;20238;-78
2021/09/09 06:14:28;;;;;;;17.20;15.70;;;;;;;14.82;88.07;99838.19;5006122;28;20218;-78
2021/09/09 06:16:56;;;;;;;16.50;14.90;;;;;;;14.87;88.66;99823.09;5006862;28;20491;-80
2021/09/09 06:19:22;;;;;;;15.87;14.53;;;;;;;14.97;89.03;99817.41;5005397;28;20209;-80
2021/09/09 06:21:49;;;;;;;14.37;13.23;;;;;;;15.08;89.91;99794.94;5008237;28;20569;-79
2021/09/09 06:24:15;;;;;;;15.80;13.70;;;;;;;15.13;89.80;99788.63;5008058;28;20203;-80
2021/09/09 06:26:42;;;;;;;13.40;12.30;;;;;;;15.24;90.29;99775.78;5010876;28;20281;-79
2021/09/09 06:29:08;;;;;;;14.10;12.90;;;;;;;15.18;89.82;99790.09;5009680;28;20234;-78
2021/09/09 06:31:34;;;;;;;15.30;14.00;;;;;;;15.22;90.10;99780.25;5007262;28;20662;-77
2021/09/09 06:34:02;;;;;;;14.00;12.70;;;;;;;15.21;90.01;99794.34;5006383;28;20204;-78
2021/09/09 06:36:29;;;;;;;13.80;12.33;;;;;;;15.40;90.80;99767.97;5004796;28;20217;-77
2021/09/09 06:38:55;;;;;;;13.33;12.30;;;;;;;15.50;90.02;99792.94;5008027;28;20211;-78
2021/09/09 06:41:21;;;;;;;12.13;10.87;;;;;;;15.62;89.94;99797.56;5006605;28;20237;-77
2021/09/09 06:43:48;;;;;;;13.50;12.30;;;;;;;15.85;90.12;99799.03;5006879;28;20226;-78
2021/09/09 06:46:14;;;;;;;14.10;12.73;;;;;;;16.05;88.67;99837.53;5009068;28;20212;-80
2021/09/09 06:48:41;;;;;;;15.77;14.53;;;;;;;15.99;86.43;99915.97;5009909;28;20286;-80
2021/09/09 06:51:08;;;;;;;16.97;15.47;;;;;;;15.54;87.44;99901.44;5008684;28;20285;-77
2021/09/09 06:53:35;;;;;;;16.57;15.17;;;;;;;15.66;87.51;99888.56;5007234;28;20211;-78
2021/09/09 06:56:01;;;;;;;17.33;15.77;;;;;;;15.79;87.74;99874.84;5007757;28;20226;-78
2021/09/09 06:58:27;;;;;;;18.20;16.70;;;;;;;15.77;87.85;99871.44;5007947;28;20220;-78
2021/09/09 07:00:54;;;;;;;14.60;13.30;;;;;;;15.77;88.28;99864.38;5006316;28;20236;-79
2021/09/09 07:03:20;;;;;;;13.20;12.10;;;;;;;15.60;89.47;99836.25;5006669;28;20211;-78
2021/09/09 07:05:46;;;;;;;18.60;17.10;;;;;;;15.50;90.72;99808.72;5007968;28;20262;-77
2021/09/09 07:08:14;;;;;;;17.37;15.97;;;;;;;15.59;89.95;99812.66;5007720;28;20736;-78
2021/09/09 07:10:41;;;;;;;13.83;12.80;;;;;;;15.74;90.04;99818.94;5006520;28;20240;-78
2021/09/09 07:13:07;;;;;;;17.93;16.13;;;;;;;15.72;90.78;99799.72;5006820;28;20257;-77
2021/09/09 07:15:33;;;;;;;16.57;15.17;;;;;;;15.76;90.83;99796.91;5005822;28;20210;-77
2021/09/09 07:18:00;;;;;;;18.47;17.07;;;;;;;15.84;91.09;99793.88;5006292;28;20215;-78
2021/09/09 07:20:26;;;;;;;20.57;18.63;;;;;;;15.89;91.00;99787.44;5006827;28;20216;-78
2021/09/09 07:22:52;;;;;;;16.00;14.63;;;;;;;15.98;90.91;99796.66;5005607;28;20609;-79
2021/09/09 07:25:20;;;;;;;15.13;13.93;;;;;;;16.01;91.04;99799.09;5005657;28;20244;-77
2021/09/09 07:27:47;;;;;;;15.17;13.83;;;;;;;16.05;91.01;99803.31;5005800;28;20214;-77
2021/09/09 07:30:13;;;;;;;16.37;14.87;;;;;;;16.03;91.04;99799.88;5003445;28;20204;-76
2021/09/09 07:32:39;;;;;;;15.20;14.03;;;;;;;16.10;91.75;99781.16;5003763;28;20246;-78
2021/09/09 07:35:07;;;;;;;14.20;13.10;;;;;;;16.16;91.93;99786.94;5005327;28;20208;-78
2021/09/09 07:37:33;;;;;;;15.30;13.87;;;;;;;16.31;92.08;99779.16;5003996;28;20246;-76
2021/09/09 07:39:59;;;;;;;14.63;13.23;;;;;;;16.40;91.69;99791.84;5003204;28;20695;-78
2021/09/09 07:42:27;;;;;;;13.80;12.90;;;;;;;16.46;91.73;99802.06;5003078;28;20574;-78
2021/09/09 07:44:53;;;;;;;13.17;12.27;;;;;;;16.49;91.77;99796.63;5004348;28;20247;-76
2021/09/09 07:47:20;;;;;;;13.43;12.43;;;;;;;16.54;92.08;99801.66;5004064;28;20254;-77
2021/09/09 07:49:46;;;;;;;14.00;12.93;;;;;;;16.59;92.12;99800.47;5004709;28;20264;-77
2021/09/09 07:52:12;;;;;;;13.87;12.70;;;;;;;16.63;93.05;99773.00;5003638;28;20232;-76
2021/09/09 07:54:39;;;;;;;13.10;12.10;;;;;;;16.70;93.23;99768.25;5003899;28;20216;-79
2021/09/09 07:57:05;;;;;;;14.60;13.50;;;;;;;16.76;93.80;99751.25;5003130;28;20754;-78
2021/09/09 07:59:34;;;;;;;14.57;13.27;;;;;;;16.79;93.81;99759.84;5004134;28;20504;-78
2021/09/09 08:02:01;;;;;;;14.47;13.23;;;;;;;16.86;93.20;99769.13;5004762;28;20229;-75
2021/09/09 08:04:27;;;;;;;14.37;13.17;;;;;;;17.01;92.75;99814.03;5003950;28;20250;-78
2021/09/09 08:06:53;;;;;;;12.70;11.57;;;;;;;17.11;92.45;99817.88;5002621;28;20208;-77
2021/09/09 08:09:20;;;;;;;12.57;11.60;;;;;;;17.20;92.67;99811.22;5003688;28;20700;-77
2021/09/09 08:11:46;;;;;;;19.70;11.30;;;;;;;17.26;92.89;99811.72;5003559;28;20238;-79
2021/09/09 08:14:12;;;;;;;12.37;11.33;;;;;;;17.31;92.85;99815.88;5002791;28;20263;-76
2021/09/09 08:16:40;;;;;;;12.43;11.53;;;;;;;17.33;92.96;99795.53;5001579;28;20219;-78
2021/09/09 08:19:07;;;;;;;12.40;11.50;;;;;;;17.41;92.16;99854.00;5003488;28;20674;-78
2021/09/09 08:21:33;;;;;;;12.17;11.17;;;;;;;17.50;91.83;99853.44;5002643;28;20736;-78
2021/09/09 08:23:59;;;;;;;11.23;10.43;;;;;;;17.57;92.33;99848.69;5004679;28;20208;-77
2021/09/09 08:26:26;;;;;;;12.43;11.33;;;;;;;17.66;92.98;99827.06;5007503;28;20682;-78
2021/09/09 08:28:52;;;;;;;11.20;10.03;;;;;;;17.67;92.67;99839.31;5003723;28;20209;-76
2021/09/09 08:31:19;;;;;;;11.60;10.70;;;;;;;17.70;92.64;99839.13;5002578;28;20236;-76
2021/09/09 08:33:47;;;;;;;10.97;10.07;;;;;;;17.74;91.61;99852.97;5001526;28;20208;-78
2021/09/09 08:36:16;;;;;;;11.80;10.90;;;;;;;17.82;92.03;99862.19;5002227;28;20208;-78
2021/09/09 08:38:42;;;;;;;11.10;10.27;;;;;;;17.88;91.72;99870.69;5003819;28;20218;-78
2021/09/09 08:41:09;;;;;;;11.47;10.40;;;;;;;17.96;90.83;99902.81;5003304;28;20806;-77
2021/09/09 08:43:35;;;;;;;11.07;10.17;;;;;;;18.08;89.69;99925.84;5004392;28;20271;-78
2021/09/09 08:46:03;;;;;;;11.23;10.43;;;;;;;18.17;90.44;99909.44;5005991;28;20217;-77
2021/09/09 08:48:30;;;;;;;11.47;10.67;;;;;;;18.25;91.31;99899.31;5003739;28;20213;-78
2021/09/09 08:50:59;;;;;;;11.03;10.20;;;;;;;18.35;89.42;99956.88;5002098;28;20245;-78
2021/09/09 08:53:26;;;;;;;11.23;10.23;;;;;;;18.42;88.47;99971.44;5002622;28;20259;-77
2021/09/09 08:55:53;;;;;;;10.43;9.63;;;;;;;18.59;84.70;100100.81;5002729;28;20206;-77
2021/09/09 08:58:20;;;;;;;10.00;9.30;;;;;;;18.75;82.07;100166.88;5004677;28;20709;-78
2021/09/09 09:01:04;;;;;;;10.37;9.57;;;;;;;18.97;85.88;100095.09;5003863;28;20652;-78
2021/09/09 09:03:46;;;;;;;10.63;9.83;;;;;;;19.07;84.37;100086.59;5001524;28;20210;-76
2021/09/09 09:06:30;;;;;;;11.50;9.27;;;;;;;19.28;79.87;100236.16;5003948;28;21187;-79
2021/09/09 09:08:59;;;;;;;9.73;9.03;;;;;;;19.42;81.96;100177.97;5000043;28;20232;-76
2021/09/09 09:11:27;;;;;;;9.93;9.10;;;;;;;19.55;82.52;100148.13;5003763;28;20230;-77
2021/09/09 09:13:54;;;;;;;8.90;8.30;;;;;;;19.63;80.89;100217.34;5002624;28;20278;-76
2021/09/09 09:16:21;;;;;;;9.50;8.70;;;;;;;19.65;81.65;100149.25;5003438;28;20216;-76
2021/09/09 09:18:49;;;;;;;9.37;8.67;;;;;;;19.68;82.13;100145.56;5003690;28;20218;-78
2021/09/09 09:21:18;;;;;;;9.60;8.90;;;;;;;19.70;82.49;100141.00;5004075;28;20849;-78
2021/09/09 09:23:49;;;;;;;10.13;8.50;;;;;;;19.82;76.73;100284.19;5003336;28;20811;-78
2021/09/09 09:26:16;;;;;;;8.90;8.23;;;;;;;19.99;76.93;100333.50;5002657;28;20336;-78
2021/09/09 09:28:45;;;;;;;12.10;8.87;;;;;;;20.11;81.26;100188.81;5005418;28;20218;-76
2021/09/09 09:31:13;;;;;;;8.97;8.23;;;;;;;20.09;78.62;100224.31;5005694;28;20928;-78
2021/09/09 09:33:42;;;;;;;8.47;7.83;;;;;;;20.24;70.56;100432.75;5002711;28;20291;-78
2021/09/09 09:36:20;;;;;;;8.23;7.73;;;;;;;20.42;73.94;100425.50;5003942;28;20254;-78
2021/09/09 09:38:49;;;;;;;8.10;7.40;;;;;;;20.54;71.39;100491.06;5001722;28;20649;-78
2021/09/09 09:41:19;;;;;;;8.17;7.57;;;;;;;20.61;70.68;100518.97;5004746;28;20731;-78
2021/09/09 09:43:57;;;;;;;8.40;7.50;;;;;;;20.68;70.49;100527.38;5003802;28;20634;-77
2021/09/09 09:46:31;;;;;;;7.77;7.10;;;;;;;20.73;70.83;100496.16;5002006;28;20204;-78
2021/09/09 09:49:16;;;;;;;8.20;7.60;;;;;;;20.81;69.47;100517.75;5002623;28;20713;-76
2021/09/09 09:51:44;;;;;;;7.63;7.10;;;;;;;20.97;67.99;100584.03;5002752;28;20580;-77
2021/09/09 09:54:13;;;;;;;7.57;7.07;;;;;;;21.09;68.90;100547.94;5004206;28;20296;-78
2021/09/09 09:56:41;;;;;;;8.27;7.57;;;;;;;21.30;68.34;100588.22;5003635;28;20247;-78
2021/09/09 09:59:07;;;;;;;7.40;6.90;;;;;;;21.31;65.69;100666.94;5006876;28;20206;-78
2021/09/09 10:01:35;;;;;;;8.27;7.67;;;;;;;21.46;63.61;100688.22;5005986;28;20731;-76
2021/09/09 10:04:05;;;;;;;7.73;7.23;;;;;;;21.53;66.85;100631.16;5007473;28;20210;-79
2021/09/09 10:06:33;;;;;;;7.17;6.47;;;;;;;21.59;62.57;100703.34;5009181;28;20642;-79
2021/09/09 10:09:00;;;;;;;8.53;7.73;;;;;;;21.80;63.77;100743.69;5008311;28;20221;-79
2021/09/09 10:11:28;;;;;;;8.73;7.30;;;;;;;21.75;66.94;100612.91;5007709;28;20273;-79
2021/09/09 10:13:55;;;;;;;10.40;7.10;;;;;;;21.71;66.36;100590.13;5007606;28;20264;-79
2021/09/09 10:16:23;;;;;;;7.43;6.83;;;;;;;21.70;63.09;100672.59;5007666;28;20424;-76
2021/09/09 10:18:50;;;;;;;8.90;8.27;;;;;;;21.92;63.70;100717.28;5006996;28;20570;-79
2021/09/09 10:21:43;;;;;;;8.20;7.60;;;;;;;22.02;63.96;100715.75;5006532;28;20724;-79
2021/09/09 10:24:11;;;;;;;8.23;7.53;;;;;;;22.11;66.12;100594.72;5007218;28;21184;-77
2021/09/09 10:26:40;;;;;;;8.07;7.30;;;;;;;22.07;66.16;100607.34;5006772;28;20671;-78
2021/09/09 10:29:09;;;;;;;7.73;7.13;;;;;;;22.00;67.96;100520.94;5006260;28;20203;-78
2021/09/09 10:31:41;;;;;;;7.83;7.13;;;;;;;22.00;66.63;100567.03;5007680;28;20237;-79
2021/09/09 10:34:09;;;;;;;8.60;7.83;;;;;;;22.03;64.68;100624.44;5007911;28;20203;-77
2021/09/09 10:36:44;;;;;;;8.43;7.83;;;;;;;22.16;67.65;100534.09;5009745;28;20214;-78
2021/09/09 10:39:12;;;;;;;7.93;7.30;;;;;;;22.24;65.88;100605.38;5008374;28;20211;-80
2021/09/09 10:41:40;;;;;;;7.93;7.33;;;;;;;22.35;65.70;100605.56;5008064;28;20226;-79
2021/09/09 10:44:08;;;;;;;7.80;7.10;;;;;;;22.34;66.50;100564.84;5007260;28;20222;-77
2021/09/09 10:46:38;;;;;;;8.73;8.00;;;;;;;22.48;66.01;100569.25;5007489;28;21463;-78
2021/09/09 10:49:26;;;;;;;9.17;8.57;;;;;;;22.55;64.25;100638.84;5005448;28;20332;-76
2021/09/09 10:52:07;;;;;;;7.73;7.20;;;;;;;22.77;61.04;100784.66;4999802;28;20234;-79
2021/09/09 10:54:54;;;;;;;9.73;7.83;;;;;;;22.91;61.75;100718.09;5004643;28;20210;-76
2021/09/09 10:57:22;;;;;;;8.00;7.33;;;;;;;23.00;67.65;100495.63;5005407;28;20648;-77
2021/09/09 10:59:50;;;;;;;8.53;7.87;;;;;;;22.99;60.69;100766.34;5006416;28;20207;-79
2021/09/09 11:02:17;;;;;;;8.20;7.60;;;;;;;23.20;58.69;100853.81;5004942;28;20223;-79
2021/09/09 11:04:45;;;;;;;8.20;7.57;;;;;;;23.35;61.76;100735.56;5005497;28;20211;-79
2021/09/09 11:07:22;;;;;;;8.07;7.40;;;;;;;23.51;61.16;100775.34;5005445;28;20502;-76
2021/09/09 11:09:58;;;;;;;8.20;7.60;;;;;;;23.57;60.28;100705.66;5004129;28;20211;-76
2021/09/09 11:12:26;;;;;;;8.00;7.37;;;;;;;23.63;64.78;100580.91;5005640;28;20241;-78
2021/09/09 11:14:52;;;;;;;8.83;7.93;;;;;;;23.81;62.73;100653.44;5006735;28;20278;-77
2021/09/09 11:17:19;;;;;;;8.50;7.77;;;;;;;23.94;61.34;100664.91;5006486;28;20284;-78
2021/09/09 11:19:45;;;;;;;7.20;6.50;;;;;;;24.19;56.40;100910.25;5005453;28;20206;-79